Time;durP1;ratioP1;P1;durP2;ratioP2;P2;SDS_P1;SDS_P2;PMS_P1;PMS_P2;Temp;Humidity;BMP_temperature;BMP_pressure;BME280_temperature;BME280_humidity;BME280_pressure;Samples;Min_cycle;Max_cycle;Signal;HPM_P1;HPM_P2
2022/08/15 00:01:27;;;;;;;13.32;6.10;;;22.00;99.90;;;21.25;100.00;100379.53;5009682;28;20037;-73
2022/08/15 00:03:57;;;;;;;13.20;5.82;;;22.10;99.90;;;21.30;100.00;100380.78;5029748;28;20565;-73
2022/08/15 00:06:33;;;;;;;12.52;6.30;;;22.10;99.90;;;21.39;100.00;100378.19;5024726;28;20033;-73
2022/08/15 00:09:04;;;;;;;21.45;5.63;;;22.10;99.90;;;21.40;100.00;100382.56;5002063;28;20049;-74
2022/08/15 00:11:44;;;;;;;11.85;5.50;;;22.10;99.90;;;21.39;100.00;100381.72;5026435;28;20038;-74
2022/08/15 00:14:16;;;;;;;12.00;6.03;;;22.10;99.90;;;21.38;100.00;100390.75;5008128;28;20025;-74
2022/08/15 00:16:44;;;;;;;13.77;6.28;;;22.10;99.90;;;21.45;99.34;100385.66;5008211;28;20029;-73
2022/08/15 00:19:31;;;;;;;12.90;5.85;;;22.20;99.90;;;21.48;98.69;100386.19;5007545;28;20048;-73
2022/08/15 00:22:01;;;;;;;;;;;22.10;99.90;;;21.32;99.72;100396.72;5025188;28;20029;-74
2022/08/15 00:24:31;;;;;;;13.98;6.25;;;22.10;99.90;;;21.29;100.00;100391.63;5015396;28;19917;-74
2022/08/15 00:27:00;;;;;;;15.40;5.85;;;22.00;99.90;;;21.29;99.61;100386.28;5002819;28;20438;-73
2022/08/15 00:29:29;;;;;;;16.35;6.78;;;22.00;99.90;;;21.28;99.77;100388.13;5026073;28;20381;-73
2022/08/15 00:31:56;;;;;;;9.88;6.32;;;22.00;99.90;;;21.26;100.00;100378.56;5024571;28;20148;-73
2022/08/15 00:34:22;;;;;;;11.68;6.55;;;21.90;99.90;;;21.22;100.00;100379.84;5023940;28;20138;-73
2022/08/15 00:36:49;;;;;;;12.60;6.95;;;21.90;99.90;;;21.19;100.00;100385.50;5035017;28;20533;-71
2022/08/15 00:39:19;;;;;;;13.18;6.65;;;21.90;99.90;;;21.16;100.00;100388.47;5029922;28;20040;-72
2022/08/15 00:41:48;;;;;;;14.55;6.85;;;21.90;99.90;;;21.10;100.00;100390.75;5008875;28;20051;-71
2022/08/15 00:44:24;;;;;;;12.93;6.82;;;21.80;99.90;;;21.04;99.81;100388.66;5012492;28;20095;-71
2022/08/15 00:47:02;;;;;;;13.38;6.78;;;21.70;99.90;;;20.95;99.32;100383.34;5034790;28;20387;-71
2022/08/15 00:49:32;;;;;;;13.38;6.85;;;21.60;99.90;;;20.85;99.53;100378.88;5027497;28;20048;-71
2022/08/15 00:52:16;;;;;;;16.83;7.30;;;21.60;99.90;;;20.78;100.00;100382.28;5028695;28;20040;-72
2022/08/15 00:54:46;;;;;;;19.45;6.72;;;21.50;99.90;;;20.69;100.00;100384.84;5025422;28;20386;-71
2022/08/15 00:57:27;;;;;;;14.15;6.38;;;21.40;99.90;;;20.65;100.00;100382.63;4991463;28;20030;-71
2022/08/15 00:59:59;;;;;;;11.05;7.07;;;21.30;99.90;;;20.60;100.00;100384.84;5008139;28;20501;-72
2022/08/15 01:02:32;;;;;;;13.93;6.70;;;21.30;99.90;;;20.54;100.00;100394.28;5005755;28;20033;-72
2022/08/15 01:04:59;;;;;;;13.88;6.80;;;21.20;99.90;;;20.45;100.00;100393.31;5027170;28;20108;-71
2022/08/15 01:07:26;;;;;;;12.32;6.95;;;21.20;99.90;;;20.41;100.00;100393.72;5031015;28;20045;-71
2022/08/15 01:09:53;;;;;;;14.10;7.28;;;21.20;99.90;;;20.37;100.00;100395.03;5011220;28;20037;-72
2022/08/15 01:12:24;;;;;;;10.43;6.50;;;21.10;99.90;;;20.36;100.00;100399.50;5014022;28;20621;-72
2022/08/15 01:15:02;;;;;;;11.27;6.85;;;21.10;99.90;;;20.33;100.00;100398.97;5028793;28;20410;-71
2022/08/15 01:17:31;;;;;;;11.45;7.07;;;21.00;99.90;;;20.27;100.00;100390.50;5028286;28;20033;-72
2022/08/15 01:20:07;;;;;;;10.18;6.88;;;21.00;99.90;;;20.24;100.00;100389.97;5027391;28;20038;-71
2022/08/15 01:22:33;;;;;;;12.65;7.25;;;21.00;99.90;;;20.21;100.00;100392.91;5020464;28;20041;-71
2022/08/15 01:25:09;;;;;;;;;;;21.00;99.90;;;20.12;100.00;100393.78;5029558;28;20586;-73
2022/08/15 01:28:12;;;;;;;9.90;7.10;;;20.90;99.90;;;20.06;100.00;100387.16;5013939;28;20405;-72
2022/08/15 01:30:55;;;;;;;14.68;8.10;;;20.80;99.90;;;20.02;100.00;100385.75;5028401;28;20892;-73
2022/08/15 01:33:23;;;;;;;15.55;8.00;;;20.80;99.90;;;20.01;100.00;100384.06;5020035;28;20056;-71
2022/08/15 01:35:51;;;;;;;14.38;7.65;;;20.80;99.90;;;19.96;100.00;100380.97;5014824;28;20064;-71
2022/08/15 01:38:31;;;;;;;14.30;7.88;;;20.70;99.90;;;19.97;100.00;100380.81;5013307;28;20040;-71
2022/08/15 01:41:17;;;;;;;11.05;7.10;;;20.70;99.90;;;19.96;100.00;100375.63;5028626;28;20037;-71
2022/08/15 01:44:04;;;;;;;11.75;6.70;;;20.70;99.90;;;19.92;100.00;100375.06;5027055;28;21017;-71
2022/08/15 01:46:39;;;;;;;15.15;6.88;;;20.60;99.90;;;19.80;100.00;100371.66;5029051;28;20030;-71
2022/08/15 01:49:17;;;;;;;14.65;7.82;;;20.50;99.90;;;19.70;100.00;100376.19;5032108;28;20539;-71
2022/08/15 01:51:44;;;;;;;15.93;8.32;;;20.40;99.90;;;19.57;100.00;100378.25;5037516;28;20072;-71
2022/08/15 01:54:13;;;;;;;17.08;8.93;;;20.40;99.90;;;19.57;100.00;100367.56;5028928;28;20474;-71
2022/08/15 01:56:47;;;;;;;15.10;9.18;;;20.40;99.90;;;19.59;100.00;100362.91;5025784;28;20041;-71
2022/08/15 01:59:20;;;;;;;16.02;9.57;;;20.30;99.90;;;19.57;100.00;100365.72;5029693;28;20059;-72
2022/08/15 02:01:57;;;;;;;15.48;8.63;;;20.40;99.90;;;19.55;100.00;100365.03;5030732;28;20040;-71
2022/08/15 02:04:31;;;;;;;14.43;9.15;;;20.30;99.90;;;19.57;100.00;100364.91;5011035;28;20037;-71
2022/08/15 02:07:01;;;;;;;13.40;9.63;;;20.30;99.90;;;19.55;100.00;100364.19;5017900;28;20056;-71
2022/08/15 02:09:28;;;;;;;15.80;10.10;;;20.30;99.90;;;19.54;100.00;100359.81;5029335;28;20037;-71
2022/08/15 02:11:56;;;;;;;14.75;10.57;;;20.30;99.90;;;19.54;100.00;100360.66;5027891;28;20044;-71
2022/08/15 02:14:22;;;;;;;17.88;9.90;;;20.30;99.90;;;19.51;100.00;100365.44;5013869;28;20057;-71
2022/08/15 02:16:49;;;;;;;17.08;10.20;;;20.30;99.90;;;19.50;100.00;100358.41;5011878;28;20051;-71
2022/08/15 02:19:15;;;;;;;13.68;10.30;;;20.30;99.90;;;19.53;100.00;100364.31;5026077;28;20026;-73
2022/08/15 02:21:46;;;;;;;18.92;11.05;;;20.30;99.90;;;19.51;100.00;100360.94;5011683;28;20048;-72
2022/08/15 02:24:18;;;;;;;18.35;11.43;;;20.30;99.90;;;19.52;100.00;100357.28;5012175;28;20033;-72
2022/08/15 02:26:45;;;;;;;18.10;11.80;;;20.30;99.90;;;19.51;100.00;100355.59;5012726;28;20052;-72
2022/08/15 02:29:11;;;;;;;17.20;11.27;;;20.30;99.90;;;19.50;100.00;100358.41;5010912;28;20076;-72
2022/08/15 02:31:39;;;;;;;16.98;11.90;;;20.30;99.90;;;19.48;100.00;100353.19;5022948;28;20064;-71
2022/08/15 02:34:05;;;;;;;19.95;11.98;;;20.30;99.90;;;19.50;100.00;100353.06;5009063;28;20045;-71
2022/08/15 02:36:35;;;;;;;19.75;11.07;;;20.30;99.90;;;19.49;100.00;100351.38;5012774;28;20053;-71
2022/08/15 02:39:05;;;;;;;20.80;12.07;;;20.30;99.90;;;19.48;100.00;100350.53;5027760;28;20089;-72
2022/08/15 02:41:39;;;;;;;18.13;12.43;;;20.30;99.90;;;19.47;100.00;100351.50;5011919;28;20120;-72
2022/08/15 02:44:07;;;;;;;20.52;12.77;;;20.30;99.90;;;19.47;100.00;100357.69;5026843;28;20025;-71
2022/08/15 02:46:33;;;;;;;16.33;11.45;;;20.30;99.90;;;19.46;100.00;100353.34;5028529;28;20068;-72
2022/08/15 02:49:06;;;;;;;20.77;13.63;;;20.30;99.90;;;19.50;100.00;100350.38;5010892;28;20067;-72
2022/08/15 02:51:32;;;;;;;17.98;12.98;;;20.30;99.90;;;19.49;100.00;100351.38;5012410;28;20034;-72
2022/08/15 02:53:59;;;;;;;24.77;13.70;;;20.30;99.90;;;19.53;100.00;100353.63;5010748;28;20037;-72
2022/08/15 02:56:27;;;;;;;16.83;13.00;;;20.40;99.90;;;19.58;100.00;100355.88;5019096;28;20049;-72
2022/08/15 02:58:53;;;;;;;16.88;13.30;;;20.40;99.90;;;19.61;100.00;100352.94;5027241;28;20030;-71
2022/08/15 03:01:22;;;;;;;22.15;13.45;;;20.40;99.90;;;19.60;100.00;100344.06;5013614;28;20045;-72
2022/08/15 03:03:51;;;;;;;20.02;13.38;;;20.40;99.90;;;19.63;100.00;100342.94;5009527;28;20049;-72
2022/08/15 03:06:26;;;;;;;20.73;14.20;;;20.50;99.90;;;19.63;100.00;100343.81;5027771;28;20512;-72
2022/08/15 03:08:53;;;;;;;23.98;13.65;;;20.40;99.90;;;19.62;100.00;100342.13;5011498;28;20036;-71
2022/08/15 03:11:20;;;;;;;19.63;13.63;;;20.50;99.90;;;19.63;100.00;100338.47;5010483;28;20064;-72
2022/08/15 03:13:47;;;;;;;21.65;15.00;;;20.40;99.90;;;19.63;100.00;100353.63;5002985;28;20036;-72
2022/08/15 03:16:15;;;;;;;20.63;13.93;;;20.50;99.90;;;19.67;100.00;100339.03;5011022;28;20056;-72
2022/08/15 03:18:42;;;;;;;22.33;14.88;;;20.50;99.90;;;19.65;100.00;100339.19;5010041;28;20044;-71
2022/08/15 03:21:12;;;;;;;23.23;15.35;;;20.50;99.90;;;19.65;100.00;100340.97;5002094;28;20116;-71
2022/08/15 03:23:46;;;;;;;22.73;15.20;;;20.50;99.90;;;19.62;100.00;100342.13;5026828;28;20463;-72
2022/08/15 03:26:12;;;;;;;21.67;14.13;;;20.40;99.90;;;19.63;100.00;100337.59;5010941;28;20036;-72
2022/08/15 03:28:37;;;;;;;26.55;15.80;;;20.50;99.90;;;19.61;100.00;100351.13;5017684;28;20041;-72
2022/08/15 03:31:06;;;;;;;28.45;14.88;;;20.40;99.90;;;19.61;100.00;100350.25;5026570;28;20052;-72
2022/08/15 03:33:34;;;;;;;22.67;14.90;;;20.40;99.90;;;19.60;100.00;100328.06;5026153;28;20037;-72
2022/08/15 03:36:00;;;;;;;23.88;15.48;;;20.50;99.90;;;19.63;100.00;100334.94;5027020;28;20045;-71
2022/08/15 03:38:27;;;;;;;24.63;15.93;;;20.50;99.90;;;19.64;100.00;100337.47;5019888;28;20059;-72
2022/08/15 03:40:53;;;;;;;21.60;16.00;;;20.40;99.90;;;19.62;100.00;100330.59;5024632;28;20029;-71
2022/08/15 03:43:27;;;;;;;31.40;15.80;;;20.40;99.90;;;19.61;100.00;100334.22;5012020;28;20037;-72
2022/08/15 03:46:00;;;;;;;24.55;15.95;;;20.40;99.90;;;19.58;100.00;100338.03;5026342;28;20033;-71
2022/08/15 03:48:32;;;;;;;22.23;16.30;;;20.40;99.90;;;19.59;100.00;100341.53;5026252;28;20028;-72
2022/08/15 03:51:01;;;;;;;23.20;15.82;;;20.40;99.90;;;19.49;100.00;100338.88;5010878;28;20069;-72
2022/08/15 03:53:50;;;;;;;31.23;16.00;;;20.30;99.90;;;19.49;100.00;100341.53;5015510;28;20505;-72
2022/08/15 03:56:24;;;;;;;28.25;16.58;;;20.30;99.90;;;19.41;100.00;100342.22;5014072;28;20059;-72
2022/08/15 03:58:51;;;;;;;24.20;16.15;;;20.20;99.90;;;19.37;100.00;100347.97;5026966;28;20064;-72
2022/08/15 04:01:25;;;;;;;27.63;16.70;;;20.20;99.90;;;19.29;100.00;100351.34;5010781;28;20033;-72
2022/08/15 04:03:52;;;;;;;22.38;17.50;;;20.20;99.90;;;19.31;100.00;100346.72;5010039;28;20385;-72
2022/08/15 04:06:25;;;;;;;27.20;16.80;;;20.10;99.90;;;19.38;100.00;100350.50;5008877;28;20044;-72
2022/08/15 04:08:53;;;;;;;28.92;16.92;;;20.20;99.90;;;19.40;100.00;100353.91;5026830;28;20508;-72
2022/08/15 04:11:22;;;;;;;27.85;16.65;;;20.20;99.90;;;19.42;100.00;100351.94;5007293;28;20516;-71
2022/08/15 04:13:48;;;;;;;26.67;17.17;;;20.20;99.90;;;19.50;100.00;100348.56;5027718;28;20448;-72
2022/08/15 04:16:15;;;;;;;23.42;16.15;;;20.20;99.90;;;19.56;100.00;100349.84;5009343;28;20557;-72
2022/08/15 04:18:42;;;;;;;23.67;16.75;;;20.30;99.90;;;19.66;100.00;100338.19;5015719;28;20044;-72
2022/08/15 04:21:11;;;;;;;26.15;16.73;;;20.40;99.90;;;19.76;100.00;100351.59;5015947;28;20041;-73
2022/08/15 04:23:38;;;;;;;25.60;16.45;;;20.40;99.90;;;19.79;100.00;100343.28;5002276;28;20037;-72
2022/08/15 04:26:04;;;;;;;24.00;15.32;;;20.50;99.90;;;19.80;100.00;100347.63;5026430;28;20113;-73
2022/08/15 04:28:30;;;;;;;27.55;16.10;;;20.50;99.90;;;19.90;100.00;100344.13;5007687;28;20056;-72
2022/08/15 04:30:58;;;;;;;22.85;16.73;;;;;;;20.00;100.00;100343.16;5006567;28;20037;-72
2022/08/15 04:33:29;;;;;;;22.98;15.60;;;20.70;99.90;;;19.96;100.00;100346.25;5028949;28;20041;-72
2022/08/15 04:36:09;;;;;;;23.85;15.60;;;20.70;99.90;;;20.13;100.00;100344.66;5026273;28;20046;-72
2022/08/15 04:38:39;;;;;;;19.58;15.38;;;21.30;99.90;;;21.26;100.00;100355.28;5024848;28;20037;-72
2022/08/15 04:41:06;;;;;;;24.98;14.65;;;22.00;99.90;;;22.30;100.00;100348.63;5008993;28;20087;-71
2022/08/15 04:43:34;;;;;;;28.27;15.25;;;22.20;99.90;;;22.27;100.00;100344.41;5024981;28;20057;-72
2022/08/15 04:46:00;;;;;;;19.27;15.05;;;22.20;99.90;;;21.83;100.00;100349.69;5026376;28;20063;-72
2022/08/15 04:48:26;;;;;;;22.40;14.60;;;22.60;99.90;;;22.59;100.00;100352.81;5027101;28;20033;-72
2022/08/15 04:50:56;;;;;;;20.92;14.88;;;23.60;99.90;;;24.40;90.01;100357.66;5033340;28;20051;-72
2022/08/15 04:53:25;;;;;;;18.92;14.30;;;24.40;99.90;;;25.66;81.01;100356.88;5005479;28;20047;-72
2022/08/15 04:55:52;;;;;;;23.95;14.15;;;25.00;99.90;;;25.86;77.13;100361.81;5008508;28;20033;-72
2022/08/15 04:58:18;;;;;;;31.60;14.15;;;25.80;99.90;;;27.17;72.30;100371.31;5027028;28;20521;-72
2022/08/15 05:01:07;;;;;;;17.92;13.13;;;26.40;99.90;;;28.37;68.41;100362.59;5009720;28;20108;-72
2022/08/15 05:03:33;;;;;;;16.50;12.40;;;27.20;99.90;;;28.83;65.28;100366.66;5007754;28;20045;-72
2022/08/15 05:06:04;;;;;;;17.17;12.68;;;27.90;99.90;;;30.00;61.63;100362.94;5007364;28;20654;-72
2022/08/15 05:08:33;;;;;;;19.13;12.80;;;28.40;99.90;;;30.69;59.21;100370.84;5025835;28;20030;-72
2022/08/15 05:11:12;;;;;;;14.52;12.25;;;28.90;99.90;;;31.26;57.47;100372.78;5024795;28;20033;-72
2022/08/15 05:13:40;;;;;;;16.73;12.50;;;29.50;99.90;;;31.97;55.45;100376.38;5007377;28;20044;-73
2022/08/15 05:16:07;;;;;;;23.42;12.55;;;30.00;99.90;;;32.87;53.28;100370.56;5024740;28;20128;-72
2022/08/15 05:18:40;;;;;;;14.88;12.23;;;30.40;99.90;;;33.23;51.84;100368.88;5005923;28;20042;-72
2022/08/15 05:21:09;;;;;;;16.35;11.82;;;30.80;99.90;;;33.62;51.00;100374.06;5024844;28;20045;-74
2022/08/15 05:23:36;;;;;;;13.55;11.68;;;31.00;99.90;;;33.58;50.55;100376.38;5011286;28;20033;-74
2022/08/15 05:26:05;;;;;;;17.33;11.98;;;31.30;99.90;;;33.73;49.45;100380.63;5007847;28;20030;-73
2022/08/15 05:28:31;;;;;;;14.05;12.23;;;31.40;99.70;;;34.12;49.06;100379.19;5006618;28;20096;-72
2022/08/15 05:30:59;;;;;;;18.85;12.50;;;31.50;99.00;;;34.18;48.47;100380.16;5020091;28;20038;-72
2022/08/15 05:33:28;;;;;;;19.88;11.50;;;32.00;99.40;;;35.67;46.02;100386.97;5024784;28;20041;-73
2022/08/15 05:36:02;;;;;;;14.95;11.65;;;32.40;98.20;;;35.81;45.49;100392.97;5027470;28;21154;-73
2022/08/15 05:38:37;;;;;;;20.75;11.90;;;32.80;96.90;;;35.28;44.85;100386.75;5007477;28;20041;-75
2022/08/15 05:41:31;;;;;;;21.40;11.40;;;32.90;97.30;;;35.91;43.54;100398.63;5024885;28;20037;-72
2022/08/15 05:44:21;;;;;;;20.67;11.30;;;33.00;96.40;;;36.30;43.03;100409.72;5025616;28;20040;-73
2022/08/15 05:47:04;;;;;;;14.18;11.70;;;33.20;95.80;;;36.66;42.75;100407.56;5025412;28;20500;-73
2022/08/15 05:49:53;;;;;;;16.42;11.38;;;33.70;95.90;;;37.24;40.67;100405.34;5025114;28;20041;-73
2022/08/15 05:52:34;;;;;;;17.48;11.20;;;33.90;95.50;;;37.13;41.28;100412.63;5009724;28;20046;-73
2022/08/15 05:55:12;;;;;;;16.40;11.80;;;33.70;94.40;;;36.85;42.42;100421.78;5017323;28;20045;-73
2022/08/15 05:58:26;;;;;;;16.15;11.07;;;34.20;95.10;;;38.38;39.36;100411.66;5029493;28;20036;-73
2022/08/15 06:01:23;;;;;;;13.98;11.05;;;34.40;93.90;;;37.92;40.48;100414.03;5016733;28;20041;-73
2022/08/15 06:04:10;;;;;;;19.50;11.05;;;34.70;93.00;;;38.06;39.86;100420.78;5028241;28;20116;-73
2022/08/15 06:06:41;;;;;;;17.30;11.55;;;34.90;93.00;;;38.24;39.44;100421.47;5030192;28;20037;-72
2022/08/15 06:09:22;;;;;;;17.02;11.23;;;35.00;92.70;;;38.37;38.91;100421.03;5013667;28;20458;-72
2022/08/15 06:11:53;;;;;;;19.27;11.30;;;35.30;92.10;;;38.23;39.38;100415.16;5021187;28;20028;-73
2022/08/15 06:14:43;;;;;;;12.60;10.35;;;35.70;91.90;;;38.65;37.63;100417.13;5009513;28;20046;-70
2022/08/15 06:17:40;;;;;;;16.13;10.82;;;35.80;92.00;;;39.40;37.31;100413.38;5018501;28;20053;-70
2022/08/15 06:20:08;;;;;;;;;;;35.90;92.40;;;39.29;37.33;100421.59;5014160;28;20021;-70
2022/08/15 06:23:05;;;;;;;18.35;10.48;;;36.50;90.60;;;39.17;37.28;100410.78;5021196;28;19912;-71
2022/08/15 06:25:55;;;;;;;;;;;36.50;91.10;;;39.48;37.24;100418.34;5015595;28;20064;-71
2022/08/15 06:28:32;;;;;;;17.73;10.80;;;36.60;89.70;;;38.81;38.08;100423.53;5030266;28;19978;-71
2022/08/15 06:31:23;;;;;;;14.02;11.20;;;36.70;90.20;;;39.28;37.00;100424.59;5018867;28;20040;-70
2022/08/15 06:34:09;;;;;;;17.17;11.15;;;36.70;88.30;;;38.42;37.41;100412.78;5015895;28;20036;-71
2022/08/15 06:36:47;;;;;;;12.85;10.73;;;36.90;90.10;;;39.22;36.95;100409.16;5018006;28;20561;-70
2022/08/15 06:39:33;;;;;;;17.05;10.88;;;37.10;88.30;;;39.19;37.07;100410.53;5010391;28;20501;-70
2022/08/15 06:42:24;;;;;;;16.52;10.55;;;37.10;87.80;;;38.95;37.88;100407.41;5011665;28;20037;-70
2022/08/15 06:44:54;;;;;;;18.80;11.50;;;37.30;87.40;;;38.51;38.25;100394.75;5002209;28;20033;-71
2022/08/15 06:47:22;;;;;;;15.20;10.88;;;36.40;86.40;;;36.44;41.60;100405.56;5014271;28;20059;-71
2022/08/15 06:49:55;;;;;;;14.73;10.38;;;36.50;88.00;;;37.18;40.39;100390.72;5011207;28;20033;-71
2022/08/15 06:52:22;;;;;;;12.73;10.85;;;36.30;88.90;;;37.13;40.79;100388.72;5025728;28;20095;-71
2022/08/15 06:54:48;;;;;;;15.18;10.73;;;36.80;88.40;;;38.07;39.17;100383.94;5028538;28;20123;-71
2022/08/15 06:57:34;;;;;;;15.63;10.77;;;36.80;87.50;;;37.90;38.83;100391.47;5007073;28;20041;-70
2022/08/15 07:00:34;;;;;;;20.98;11.05;;;37.00;87.20;;;37.59;38.74;100388.44;5012087;28;20044;-70
2022/08/15 07:03:25;;;;;;;15.27;11.25;;;36.70;87.10;;;36.79;40.40;100388.00;5025334;28;20028;-71
2022/08/15 07:05:57;;;;;;;13.70;11.07;;;36.60;89.30;;;37.64;40.31;100377.50;5016058;28;20029;-70
2022/08/15 07:09:01;;;;;;;14.40;10.38;;;36.60;87.40;;;37.44;40.13;100380.84;5027064;28;20025;-70
2022/08/15 07:11:38;;;;;;;13.68;9.82;;;36.70;87.40;;;37.36;40.34;100384.03;5028141;28;20037;-70
2022/08/15 07:14:07;;;;;;;16.10;10.13;;;37.00;87.10;;;37.92;39.38;100381.88;5002009;28;20112;-71
2022/08/15 07:17:12;;;;;;;16.60;10.77;;;37.10;85.70;;;36.40;40.01;100381.66;5017246;28;20045;-71
2022/08/15 07:19:38;;;;;;;18.60;10.65;;;37.40;86.40;;;38.30;39.07;100376.44;5027603;28;20044;-70
2022/08/15 07:22:07;;;;;;;19.05;10.70;;;38.00;84.80;;;39.08;37.72;100375.81;5011621;28;20033;-71
2022/08/15 07:24:33;;;;;;;13.70;10.73;;;38.60;84.90;;;39.74;37.46;100384.25;5028320;28;20497;-71
2022/08/15 07:27:13;;;;;;;11.90;10.60;;;39.00;81.80;;;38.29;37.65;100383.00;4982004;28;20047;-72
2022/08/15 07:29:55;;;;;;;16.17;11.70;;;38.50;81.30;;;37.72;38.65;100374.28;5010394;28;20026;-71
2022/08/15 07:32:48;;;;;;;14.80;11.65;;;38.20;83.60;;;37.80;39.07;100380.38;5007464;28;20041;-71
2022/08/15 07:35:14;;;;;;;15.32;12.13;;;38.20;83.10;;;37.99;39.52;100380.81;5012365;28;20117;-71
2022/08/15 07:38:06;;;;;;;19.50;12.00;;;37.70;83.00;;;36.99;40.03;100372.88;5010281;28;20568;-71
2022/08/15 07:40:43;;;;;;;14.75;11.63;;;37.90;83.50;;;38.08;39.21;100374.63;5002384;28;20767;-70
2022/08/15 07:43:28;;;;;;;22.55;12.68;;;38.30;82.70;;;38.30;38.56;100376.44;5009620;28;20123;-71
2022/08/15 07:46:16;;;;;;;20.92;12.30;;;38.50;82.50;;;38.21;38.29;100376.09;5024487;28;20107;-71
2022/08/15 07:48:43;;;;;;;21.90;12.75;;;38.60;81.60;;;38.15;38.21;100375.22;5011205;28;20055;-71
2022/08/15 07:51:17;;;;;;;17.73;12.95;;;38.40;80.70;;;37.73;38.57;100373.22;5028709;28;20111;-71
2022/08/15 07:54:01;;;;;;;16.17;13.13;;;38.20;81.00;;;37.69;39.37;100368.47;5012918;28;20094;-70
2022/08/15 07:56:30;;;;;;;15.60;12.00;;;38.00;82.50;;;37.49;39.71;100369.06;5013246;28;20378;-71
2022/08/15 07:59:30;;;;;;;16.88;13.10;;;37.60;83.10;;;36.66;40.16;100360.94;4991137;28;20028;-70
2022/08/15 08:02:29;;;;;;;29.27;13.00;;;37.70;83.30;;;37.41;39.54;100364.91;5017830;28;20163;-71
2022/08/15 08:04:56;;;;;;;16.45;12.73;;;37.40;82.60;;;36.79;40.99;100348.75;5025668;28;20037;-71
2022/08/15 08:07:36;;;;;;;16.65;13.25;;;37.20;84.30;;;36.81;40.90;100343.84;5024429;28;20128;-71
2022/08/15 08:10:27;;;;;;;16.20;13.38;;;37.40;84.20;;;37.31;40.06;100353.78;5026822;28;20393;-73
2022/08/15 08:13:12;;;;;;;16.67;14.55;;;37.40;83.30;;;36.84;40.63;100357.88;5013999;28;20032;-74
2022/08/15 08:15:59;;;;;;;16.10;13.48;;;36.80;83.40;;;35.47;42.58;100347.16;5024001;28;20041;-73
2022/08/15 08:19:03;;;;;;;16.15;13.63;;;36.10;86.20;;;35.02;43.13;100339.69;5010503;28;20049;-73
2022/08/15 08:21:55;;;;;;;16.38;14.23;;;36.10;85.70;;;35.50;42.27;100343.91;4999995;28;20033;-73
2022/08/15 08:25:09;;;;;;;18.92;13.95;;;36.20;85.70;;;35.67;41.68;100335.78;5030158;28;20033;-73
2022/08/15 08:28:03;;;;;;;21.38;15.13;;;35.90;86.20;;;35.17;42.89;100335.66;4987094;28;20104;-74
2022/08/15 08:30:45;;;;;;;16.25;13.98;;;35.40;87.20;;;34.18;45.06;100323.63;5018181;28;20029;-74
2022/08/15 08:33:39;;;;;;;17.67;14.68;;;35.20;88.70;;;34.48;44.67;100323.47;5019988;28;20132;-74
2022/08/15 08:36:32;;;;;;;21.05;14.88;;;34.80;88.80;;;34.24;45.46;100316.38;5022367;28;20041;-74
2022/08/15 08:39:13;;;;;;;21.48;15.57;;;34.60;89.40;;;33.95;45.99;100310.72;5019807;28;20049;-73
2022/08/15 08:41:51;;;;;;;21.20;17.05;;;34.10;89.30;;;33.73;45.61;100312.38;5032005;28;20061;-73
2022/08/15 08:44:47;;;;;;;31.38;17.17;;;34.20;89.60;;;33.01;46.03;100297.59;5012532;28;20029;-73
2022/08/15 08:48:11;;;;;;;24.52;16.75;;;33.70;90.20;;;31.82;48.53;100294.19;5029554;28;20053;-73
2022/08/15 08:50:49;;;;;;;22.05;17.27;;;33.10;90.60;;;32.18;48.40;100309.84;5030385;28;20033;-73
2022/08/15 08:53:40;;;;;;;23.83;17.10;;;32.70;91.80;;;32.51;48.99;100297.75;5013217;28;20059;-73
2022/08/15 08:56:22;;;;;;;22.88;16.33;;;32.70;91.50;;;32.23;48.46;100296.38;5029442;28;20137;-73
2022/08/15 08:59:01;;;;;;;20.23;15.70;;;32.40;91.60;;;31.86;49.90;100306.31;4989178;28;20044;-76
2022/08/15 09:01:29;;;;;;;20.88;16.20;;;32.10;91.40;;;31.15;50.40;100288.34;5016235;28;20481;-72
2022/08/15 09:04:03;;;;;;;21.67;15.73;;;31.80;91.80;;;30.86;51.57;100291.41;5032992;28;20094;-73
2022/08/15 09:06:39;;;;;;;18.83;16.45;;;31.40;92.80;;;30.70;52.40;100294.56;5021801;28;20033;-73
2022/08/15 09:09:32;;;;;;;17.80;14.80;;;31.30;92.40;;;30.53;51.82;100283.31;5031445;28;20040;-73
2022/08/15 09:15:03;;;;;;;20.05;15.75;;;30.90;93.30;;;30.28;53.44;100280.44;5023125;28;21647;-72
2022/08/15 09:17:36;;;;;;;19.27;15.65;;;30.80;93.60;;;30.30;53.67;100281.06;5020292;28;21010;-73
2022/08/15 09:20:14;;;;;;;17.65;15.25;;;30.80;94.00;;;30.42;53.60;100278.56;5033872;28;20052;-73
2022/08/15 09:22:41;;;;;;;24.92;16.17;;;30.80;93.90;;;30.52;52.90;100272.66;5033736;28;20033;-72
2022/08/15 09:25:09;;;;;;;18.63;14.68;;;30.80;93.70;;;30.25;53.80;100268.09;5034907;28;20556;-72
2022/08/15 09:27:53;;;;;;;20.38;14.85;;;30.40;93.80;;;29.70;54.27;100272.09;5040817;28;20028;-72
2022/08/15 09:30:23;;;;;;;19.38;13.98;;;30.40;93.70;;;29.90;53.82;100264.81;5036528;28;20090;-72
2022/08/15 09:33:44;;;;;;;17.40;13.75;;;30.40;93.80;;;29.90;52.89;100266.69;5023432;28;20424;-73
2022/08/15 09:36:45;;;;;;;18.13;14.30;;;30.30;94.30;;;29.80;54.08;100261.69;5038798;28;20111;-75
2022/08/15 09:39:38;;;;;;;13.93;12.30;;;30.30;94.00;;;29.98;53.04;100255.59;5022891;28;20068;-75
2022/08/15 09:42:19;;;;;;;19.27;13.05;;;30.30;94.00;;;30.02;53.66;100255.00;5040110;28;20998;-75
2022/08/15 09:45:45;;;;;;;18.15;13.73;;;30.40;94.20;;;29.95;53.45;100256.88;5022389;28;20620;-75
2022/08/15 09:49:02;;;;;;;19.75;13.30;;;30.20;94.60;;;29.52;54.48;100256.41;5039742;28;20029;-75
2022/08/15 09:52:00;;;;;;;14.15;11.55;;;30.20;94.30;;;29.79;53.83;100246.47;5014433;28;20072;-75
2022/08/15 09:54:31;;;;;;;17.83;12.90;;;30.40;93.40;;;30.07;52.35;100238.06;5032557;28;20552;-73
2022/08/15 09:57:43;;;;;;;16.90;13.85;;;30.40;93.90;;;30.18;53.23;100239.31;5025634;28;20075;-72
2022/08/15 10:00:17;;;;;;;17.90;13.27;;;30.60;93.90;;;30.22;52.57;100232.41;5029704;28;20037;-73
2022/08/15 10:02:51;;;;;;;19.02;13.13;;;30.50;93.80;;;30.08;53.84;100245.16;5019354;28;20068;-73
2022/08/15 10:05:59;;;;;;;15.85;12.10;;;30.60;93.80;;;30.25;52.61;100229.25;5010673;28;20056;-73
2022/08/15 10:08:54;;;;;;;13.40;10.77;;;30.60;93.50;;;29.90;53.22;100231.41;5037798;28;20091;-72
2022/08/15 10:11:38;;;;;;;15.90;11.15;;;30.40;94.20;;;29.87;53.26;100227.25;5031804;28;20041;-73
2022/08/15 10:14:19;;;;;;;11.90;10.70;;;30.40;93.60;;;29.89;53.20;100224.31;5040557;28;20036;-71
2022/08/15 10:16:55;;;;;;;19.80;12.00;;;30.40;93.50;;;29.80;53.14;100220.97;5024028;28;20061;-73
2022/08/15 10:19:39;;;;;;;17.80;11.70;;;30.10;93.80;;;29.02;54.99;100214.16;5042300;28;20053;-73
2022/08/15 10:23:08;;;;;;;17.08;12.32;;;29.90;94.10;;;29.14;54.56;100217.16;5024903;28;20051;-73
2022/08/15 10:25:46;;;;;;;17.52;12.15;;;29.70;94.20;;;29.04;55.18;100214.81;5026251;28;20119;-72
2022/08/15 10:28:12;;;;;;;12.25;10.65;;;29.80;94.60;;;29.30;54.78;100207.78;5038852;28;20656;-73
2022/08/15 10:31:05;;;;;;;19.05;12.70;;;29.60;94.90;;;29.18;55.05;100204.88;5029887;28;20045;-73
2022/08/15 10:33:39;;;;;;;17.33;12.07;;;30.00;95.10;;;29.88;54.39;100201.78;5034304;28;20460;-72
2022/08/15 10:36:14;;;;;;;16.50;11.93;;;30.30;94.50;;;30.08;53.90;100204.44;5025422;28;20045;-72
2022/08/15 10:39:21;;;;;;;15.00;11.70;;;30.40;94.40;;;29.83;52.90;100207.00;5031315;28;20041;-73
2022/08/15 10:42:14;;;;;;;22.33;12.98;;;30.30;93.50;;;29.75;52.71;100209.94;5036567;28;20049;-73
2022/08/15 10:44:57;;;;;;;16.02;12.43;;;30.20;93.80;;;29.64;53.52;100206.75;5021241;28;20509;-73